sensor_id;sensor_type;location;lat;lon;timestamp;pressure;altitude;pressure_sealevel;temperature;humidity
36380;BME280;22411;53.016;18.632;2023-08-08T00:00:47;99621.94;;;13.95;100.00
36380;BME280;22411;53.016;18.632;2023-08-08T00:03:31;99619.78;;;13.90;100.00
36380;BME280;22411;53.016;18.632;2023-08-08T00:05:57;99625.59;;;13.84;100.00
36380;BME280;22411;53.016;18.632;2023-08-08T00:08:23;99630.94;;;13.82;100.00
36380;BME280;22411;53.016;18.632;2023-08-08T00:10:49;99620.91;;;13.88;100.00
36380;BME280;22411;53.016;18.632;2023-08-08T00:13:14;99621.34;;;13.83;100.00
36380;BME280;22411;53.016;18.632;2023-08-08T00:15:41;99630.25;;;13.80;100.00
36380;BME280;22411;53.016;18.632;2023-08-08T00:18:06;99627.44;;;13.74;100.00
36380;BME280;22411;53.016;18.632;2023-08-08T00:20:32;99626.84;;;13.80;100.00
36380;BME280;22411;53.016;18.632;2023-08-08T00:22:58;99640.00;;;13.78;100.00
36380;BME280;22411;53.016;18.632;2023-08-08T00:25:24;99632.78;;;13.72;100.00
36380;BME280;22411;53.016;18.632;2023-08-08T00:27:50;99629.00;;;13.67;100.00
36380;BME280;22411;53.016;18.632;2023-08-08T00:30:15;99631.44;;;13.68;100.00
36380;BME280;22411;53.016;18.632;2023-08-08T00:32:41;99626.97;;;13.60;100.00
36380;BME280;22411;53.016;18.632;2023-08-08T00:35:08;99635.88;;;13.58;100.00
36380;BME280;22411;53.016;18.632;2023-08-08T00:37:33;99641.66;;;13.52;100.00
36380;BME280;22411;53.016;18.632;2023-08-08T00:39:59;99628.91;;;13.49;100.00
36380;BME280;22411;53.016;18.632;2023-08-08T00:42:25;99640.41;;;13.56;100.00
36380;BME280;22411;53.016;18.632;2023-08-08T00:44:51;99647.03;;;13.50;100.00
36380;BME280;22411;53.016;18.632;2023-08-08T00:47:16;99643.34;;;13.43;100.00
36380;BME280;22411;53.016;18.632;2023-08-08T00:49:42;99651.03;;;13.45;100.00
36380;BME280;22411;53.016;18.632;2023-08-08T00:52:11;99642.94;;;13.38;100.00
36380;BME280;22411;53.016;18.632;2023-08-08T00:54:37;99650.75;;;13.38;100.00
36380;BME280;22411;53.016;18.632;2023-08-08T00:57:03;99652.56;;;13.28;100.00
36380;BME280;22411;53.016;18.632;2023-08-08T00:59:29;99670.50;;;13.31;100.00
36380;BME280;22411;53.016;18.632;2023-08-08T01:01:57;99664.34;;;13.32;100.00
36380;BME280;22411;53.016;18.632;2023-08-08T01:04:25;99663.81;;;13.28;100.00
36380;BME280;22411;53.016;18.632;2023-08-08T01:09:55;99665.88;;;13.25;100.00
36380;BME280;22411;53.016;18.632;2023-08-08T01:12:25;99683.66;;;13.20;100.00
36380;BME280;22411;53.016;18.632;2023-08-08T01:14:51;99669.03;;;13.19;100.00
36380;BME280;22411;53.016;18.632;2023-08-08T01:17:18;99665.47;;;13.20;100.00
36380;BME280;22411;53.016;18.632;2023-08-08T01:19:44;99677.66;;;13.19;100.00
36380;BME280;22411;53.016;18.632;2023-08-08T01:22:22;99662.47;;;13.15;100.00
36380;BME280;22411;53.016;18.632;2023-08-08T01:24:49;99671.09;;;13.15;100.00
36380;BME280;22411;53.016;18.632;2023-08-08T01:27:15;99674.91;;;13.11;100.00
36380;BME280;22411;53.016;18.632;2023-08-08T01:29:41;99672.88;;;13.15;100.00
36380;BME280;22411;53.016;18.632;2023-08-08T01:32:07;99676.03;;;13.18;100.00
36380;BME280;22411;53.016;18.632;2023-08-08T01:34:35;99677.53;;;13.11;100.00
36380;BME280;22411;53.016;18.632;2023-08-08T01:37:14;99696.16;;;13.06;100.00
36380;BME280;22411;53.016;18.632;2023-08-08T01:39:43;99699.16;;;13.12;100.00
36380;BME280;22411;53.016;18.632;2023-08-08T01:42:11;99683.84;;;12.99;100.00
36380;BME280;22411;53.016;18.632;2023-08-08T01:44:38;99692.22;;;12.93;100.00
36380;BME280;22411;53.016;18.632;2023-08-08T01:47:06;99690.28;;;12.95;100.00
36380;BME280;22411;53.016;18.632;2023-08-08T01:49:32;99701.38;;;12.97;100.00
36380;BME280;22411;53.016;18.632;2023-08-08T01:51:58;99686.88;;;12.94;100.00
36380;BME280;22411;53.016;18.632;2023-08-08T01:54:23;99698.50;;;12.90;100.00
36380;BME280;22411;53.016;18.632;2023-08-08T01:56:49;99700.28;;;12.90;100.00
36380;BME280;22411;53.016;18.632;2023-08-08T01:59:14;99688.66;;;12.94;100.00
36380;BME280;22411;53.016;18.632;2023-08-08T02:01:40;99697.94;;;12.96;100.00
36380;BME280;22411;53.016;18.632;2023-08-08T02:04:06;99685.91;;;12.95;100.00
36380;BME280;22411;53.016;18.632;2023-08-08T02:06:31;99687.81;;;13.03;100.00
36380;BME280;22411;53.016;18.632;2023-08-08T02:08:57;99679.22;;;13.02;100.00
36380;BME280;22411;53.016;18.632;2023-08-08T02:11:23;99688.91;;;13.00;100.00
36380;BME280;22411;53.016;18.632;2023-08-08T02:13:49;99683.72;;;13.00;100.00
36380;BME280;22411;53.016;18.632;2023-08-08T02:16:14;99700.28;;;12.99;100.00
36380;BME280;22411;53.016;18.632;2023-08-08T02:18:40;99698.38;;;12.92;100.00
36380;BME280;22411;53.016;18.632;2023-08-08T02:21:07;99697.13;;;12.96;100.00
36380;BME280;22411;53.016;18.632;2023-08-08T02:23:33;99690.03;;;12.98;100.00
36380;BME280;22411;53.016;18.632;2023-08-08T02:25:59;99687.69;;;12.95;100.00
36380;BME280;22411;53.016;18.632;2023-08-08T02:28:25;99707.53;;;12.96;100.00
36380;BME280;22411;53.016;18.632;2023-08-08T02:30:50;99703.44;;;12.93;100.00
36380;BME280;22411;53.016;18.632;2023-08-08T02:33:16;99699.72;;;12.96;100.00
36380;BME280;22411;53.016;18.632;2023-08-08T02:35:42;99705.91;;;12.95;100.00
36380;BME280;22411;53.016;18.632;2023-08-08T02:38:08;99701.66;;;13.03;100.00
36380;BME280;22411;53.016;18.632;2023-08-08T02:40:33;99710.13;;;13.05;100.00
36380;BME280;22411;53.016;18.632;2023-08-08T02:42:59;99707.66;;;13.04;100.00
36380;BME280;22411;53.016;18.632;2023-08-08T02:45:25;99706.28;;;13.09;100.00
36380;BME280;22411;53.016;18.632;2023-08-08T02:47:50;99714.34;;;13.06;100.00
36380;BME280;22411;53.016;18.632;2023-08-08T02:50:16;99709.84;;;13.08;100.00
36380;BME280;22411;53.016;18.632;2023-08-08T02:52:42;99709.97;;;13.07;100.00
36380;BME280;22411;53.016;18.632;2023-08-08T02:55:07;99715.88;;;13.19;100.00
36380;BME280;22411;53.016;18.632;2023-08-08T02:57:33;99727.09;;;13.29;100.00
36380;BME280;22411;53.016;18.632;2023-08-08T02:59:59;99715.97;;;13.37;100.00
36380;BME280;22411;53.016;18.632;2023-08-08T03:02:25;99715.72;;;13.30;100.00
36380;BME280;22411;53.016;18.632;2023-08-08T03:04:51;99712.56;;;13.36;100.00
36380;BME280;22411;53.016;18.632;2023-08-08T03:07:16;99719.00;;;13.32;100.00
36380;BME280;22411;53.016;18.632;2023-08-08T03:09:42;99719.16;;;13.30;100.00
36380;BME280;22411;53.016;18.632;2023-08-08T03:12:08;99719.00;;;13.32;100.00
36380;BME280;22411;53.016;18.632;2023-08-08T03:14:33;99723.66;;;13.28;100.00
36380;BME280;22411;53.016;18.632;2023-08-08T03:16:59;99719.97;;;13.31;100.00
36380;BME280;22411;53.016;18.632;2023-08-08T03:19:25;99724.78;;;13.26;100.00
36380;BME280;22411;53.016;18.632;2023-08-08T03:21:51;99722.84;;;13.28;100.00
36380;BME280;22411;53.016;18.632;2023-08-08T03:24:17;99726.25;;;13.28;100.00
36380;BME280;22411;53.016;18.632;2023-08-08T03:26:43;99728.84;;;13.28;100.00
36380;BME280;22411;53.016;18.632;2023-08-08T03:29:08;99719.97;;;13.31;100.00
36380;BME280;22411;53.016;18.632;2023-08-08T03:31:36;99745.72;;;13.34;100.00
36380;BME280;22411;53.016;18.632;2023-08-08T03:34:02;99721.44;;;13.33;100.00
36380;BME280;22411;53.016;18.632;2023-08-08T03:36:33;99726.81;;;13.32;100.00
36380;BME280;22411;53.016;18.632;2023-08-08T03:38:58;99725.31;;;13.29;100.00
36380;BME280;22411;53.016;18.632;2023-08-08T03:41:24;99728.03;;;13.28;100.00
36380;BME280;22411;53.016;18.632;2023-08-08T03:43:50;99736.66;;;13.28;100.00
36380;BME280;22411;53.016;18.632;2023-08-08T03:46:15;99732.72;;;13.34;100.00
36380;BME280;22411;53.016;18.632;2023-08-08T03:48:41;99736.13;;;13.25;100.00
36380;BME280;22411;53.016;18.632;2023-08-08T03:51:07;99745.59;;;13.26;100.00
36380;BME280;22411;53.016;18.632;2023-08-08T03:53:32;99742.00;;;13.37;100.00
36380;BME280;22411;53.016;18.632;2023-08-08T03:55:58;99740.50;;;13.34;100.00
36380;BME280;22411;53.016;18.632;2023-08-08T03:58:24;99753.91;;;13.39;100.00
36380;BME280;22411;53.016;18.632;2023-08-08T04:00:50;99759.22;;;13.47;100.00
36380;BME280;22411;53.016;18.632;2023-08-08T04:03:16;99751.41;;;13.47;100.00
36380;BME280;22411;53.016;18.632;2023-08-08T04:05:46;99753.34;;;13.45;100.00
36380;BME280;22411;53.016;18.632;2023-08-08T04:08:15;99749.63;;;13.48;100.00
36380;BME280;22411;53.016;18.632;2023-08-08T04:10:42;99765.50;;;13.54;100.00
36380;BME280;22411;53.016;18.632;2023-08-08T04:13:07;99757.81;;;13.63;100.00
36380;BME280;22411;53.016;18.632;2023-08-08T04:15:33;99774.69;;;13.58;100.00
36380;BME280;22411;53.016;18.632;2023-08-08T04:17:59;99774.09;;;13.65;100.00
36380;BME280;22411;53.016;18.632;2023-08-08T04:20:25;99776.31;;;13.59;100.00
36380;BME280;22411;53.016;18.632;2023-08-08T04:22:50;99785.91;;;13.59;100.00
36380;BME280;22411;53.016;18.632;2023-08-08T04:25:16;99782.22;;;13.62;100.00
36380;BME280;22411;53.016;18.632;2023-08-08T04:27:42;99785.50;;;13.54;100.00
36380;BME280;22411;53.016;18.632;2023-08-08T04:30:08;99791.00;;;13.60;100.00
36380;BME280;22411;53.016;18.632;2023-08-08T04:32:34;99787.81;;;13.67;100.00
36380;BME280;22411;53.016;18.632;2023-08-08T04:34:59;99803.28;;;13.68;100.00
36380;BME280;22411;53.016;18.632;2023-08-08T04:37:25;99801.81;;;13.66;100.00
36380;BME280;22411;53.016;18.632;2023-08-08T04:39:51;99793.16;;;13.65;100.00
36380;BME280;22411;53.016;18.632;2023-08-08T04:42:16;99809.63;;;13.66;100.00
36380;BME280;22411;53.016;18.632;2023-08-08T04:44:42;99818.09;;;13.68;100.00
36380;BME280;22411;53.016;18.632;2023-08-08T04:47:08;99801.66;;;13.67;100.00
36380;BME280;22411;53.016;18.632;2023-08-08T04:49:34;99801.91;;;13.74;100.00
36380;BME280;22411;53.016;18.632;2023-08-08T04:51:59;99802.56;;;13.76;100.00
36380;BME280;22411;53.016;18.632;2023-08-08T04:54:25;99809.44;;;13.77;100.00
36380;BME280;22411;53.016;18.632;2023-08-08T04:56:50;99812.72;;;13.79;100.00
36380;BME280;22411;53.016;18.632;2023-08-08T04:59:16;99825.06;;;13.77;100.00
36380;BME280;22411;53.016;18.632;2023-08-08T05:01:42;99833.81;;;13.76;100.00
36380;BME280;22411;53.016;18.632;2023-08-08T05:04:09;99828.09;;;13.72;100.00
36380;BME280;22411;53.016;18.632;2023-08-08T05:06:34;99837.41;;;13.75;100.00
36380;BME280;22411;53.016;18.632;2023-08-08T05:09:00;99821.09;;;13.73;100.00
36380;BME280;22411;53.016;18.632;2023-08-08T05:11:26;99829.31;;;13.78;100.00
36380;BME280;22411;53.016;18.632;2023-08-08T05:13:51;99823.81;;;13.81;100.00
36380;BME280;22411;53.016;18.632;2023-08-08T05:16:18;99826.28;;;13.82;100.00
36380;BME280;22411;53.016;18.632;2023-08-08T05:18:44;99840.53;;;13.78;100.00
36380;BME280;22411;53.016;18.632;2023-08-08T05:21:10;99838.59;;;13.90;100.00
36380;BME280;22411;53.016;18.632;2023-08-08T05:23:36;99846.94;;;13.94;100.00
36380;BME280;22411;53.016;18.632;2023-08-08T05:26:02;99827.91;;;13.83;100.00
36380;BME280;22411;53.016;18.632;2023-08-08T05:28:29;99836.94;;;13.89;100.00
36380;BME280;22411;53.016;18.632;2023-08-08T05:30:54;99845.00;;;13.96;100.00
36380;BME280;22411;53.016;18.632;2023-08-08T05:33:22;99870.25;;;13.95;100.00
36380;BME280;22411;53.016;18.632;2023-08-08T05:35:47;99850.22;;;13.96;100.00
36380;BME280;22411;53.016;18.632;2023-08-08T05:38:13;99870.41;;;13.94;100.00
36380;BME280;22411;53.016;18.632;2023-08-08T05:40:39;99865.03;;;13.95;100.00
36380;BME280;22411;53.016;18.632;2023-08-08T05:43:05;99861.72;;;14.03;100.00
36380;BME280;22411;53.016;18.632;2023-08-08T05:45:31;99873.66;;;13.96;100.00
36380;BME280;22411;53.016;18.632;2023-08-08T05:47:57;99856.25;;;13.96;100.00
36380;BME280;22411;53.016;18.632;2023-08-08T05:50:25;99869.16;;;13.98;100.00
36380;BME280;22411;53.016;18.632;2023-08-08T05:52:50;99855.59;;;13.94;100.00
36380;BME280;22411;53.016;18.632;2023-08-08T05:55:16;99890.41;;;13.93;100.00
36380;BME280;22411;53.016;18.632;2023-08-08T05:57:42;99864.47;;;13.92;100.00
36380;BME280;22411;53.016;18.632;2023-08-08T06:00:08;99872.19;;;13.93;100.00
36380;BME280;22411;53.016;18.632;2023-08-08T06:02:37;99858.81;;;14.06;100.00
36380;BME280;22411;53.016;18.632;2023-08-08T06:05:04;99880.03;;;14.21;100.00
36380;BME280;22411;53.016;18.632;2023-08-08T06:07:30;99872.22;;;14.21;100.00
36380;BME280;22411;53.016;18.632;2023-08-08T06:09:56;99875.22;;;14.26;100.00
36380;BME280;22411;53.016;18.632;2023-08-08T06:12:21;99890.81;;;14.35;100.00
36380;BME280;22411;53.016;18.632;2023-08-08T06:14:47;99889.94;;;14.45;100.00
36380;BME280;22411;53.016;18.632;2023-08-08T06:17:14;99874.84;;;14.48;100.00
36380;BME280;22411;53.016;18.632;2023-08-08T06:19:40;99881.72;;;14.49;100.00
36380;BME280;22411;53.016;18.632;2023-08-08T06:22:05;99879.00;;;14.41;100.00
36380;BME280;22411;53.016;18.632;2023-08-08T06:24:31;99893.00;;;14.40;100.00
36380;BME280;22411;53.016;18.632;2023-08-08T06:26:57;99875.31;;;14.34;100.00
36380;BME280;22411;53.016;18.632;2023-08-08T06:29:22;99887.94;;;14.29;100.00
36380;BME280;22411;53.016;18.632;2023-08-08T06:31:48;99890.38;;;14.40;100.00
36380;BME280;22411;53.016;18.632;2023-08-08T06:34:14;99898.22;;;14.40;100.00
36380;BME280;22411;53.016;18.632;2023-08-08T06:36:41;99889.84;;;14.36;100.00
36380;BME280;22411;53.016;18.632;2023-08-08T06:39:06;99908.50;;;14.42;100.00
36380;BME280;22411;53.016;18.632;2023-08-08T06:41:32;99900.28;;;14.36;100.00
36380;BME280;22411;53.016;18.632;2023-08-08T06:43:58;99921.38;;;14.53;100.00
36380;BME280;22411;53.016;18.632;2023-08-08T06:46:24;99914.59;;;14.60;100.00
36380;BME280;22411;53.016;18.632;2023-08-08T06:48:50;99939.19;;;14.57;100.00
36380;BME280;22411;53.016;18.632;2023-08-08T06:51:18;99903.34;;;14.59;100.00
36380;BME280;22411;53.016;18.632;2023-08-08T06:53:44;99915.53;;;14.69;100.00
36380;BME280;22411;53.016;18.632;2023-08-08T06:56:10;99925.28;;;14.67;100.00
36380;BME280;22411;53.016;18.632;2023-08-08T06:58:35;99920.13;;;14.57;100.00
36380;BME280;22411;53.016;18.632;2023-08-08T07:01:02;99921.75;;;14.58;100.00
36380;BME280;22411;53.016;18.632;2023-08-08T07:03:28;99933.00;;;14.58;100.00
36380;BME280;22411;53.016;18.632;2023-08-08T07:05:53;99908.75;;;14.48;100.00
36380;BME280;22411;53.016;18.632;2023-08-08T07:08:19;99923.94;;;14.62;100.00
36380;BME280;22411;53.016;18.632;2023-08-08T07:10:45;99913.88;;;14.68;100.00
36380;BME280;22411;53.016;18.632;2023-08-08T07:13:11;99916.69;;;14.84;100.00
36380;BME280;22411;53.016;18.632;2023-08-08T07:15:37;99920.59;;;14.98;100.00
36380;BME280;22411;53.016;18.632;2023-08-08T07:18:03;99916.84;;;15.18;100.00
36380;BME280;22411;53.016;18.632;2023-08-08T07:20:30;99908.19;;;15.17;100.00
36380;BME280;22411;53.016;18.632;2023-08-08T07:22:55;99927.53;;;15.25;100.00
36380;BME280;22411;53.016;18.632;2023-08-08T07:25:21;99903.59;;;15.11;100.00
36380;BME280;22411;53.016;18.632;2023-08-08T07:27:47;99913.75;;;15.14;100.00
36380;BME280;22411;53.016;18.632;2023-08-08T07:30:13;99906.66;;;15.25;100.00
36380;BME280;22411;53.016;18.632;2023-08-08T07:32:38;99922.69;;;15.30;100.00
36380;BME280;22411;53.016;18.632;2023-08-08T07:35:04;99924.38;;;15.39;100.00
36380;BME280;22411;53.016;18.632;2023-08-08T07:37:32;99909.66;;;15.30;100.00
36380;BME280;22411;53.016;18.632;2023-08-08T07:39:58;99916.56;;;15.39;100.00
36380;BME280;22411;53.016;18.632;2023-08-08T07:42:24;99924.00;;;15.34;100.00
36380;BME280;22411;53.016;18.632;2023-08-08T07:44:49;99925.97;;;15.32;100.00
36380;BME280;22411;53.016;18.632;2023-08-08T07:47:15;99915.69;;;15.30;100.00
36380;BME280;22411;53.016;18.632;2023-08-08T07:49:41;99925.44;;;15.46;100.00
36380;BME280;22411;53.016;18.632;2023-08-08T07:52:07;99929.97;;;15.44;100.00
36380;BME280;22411;53.016;18.632;2023-08-08T07:54:34;99921.50;;;15.42;100.00
36380;BME280;22411;53.016;18.632;2023-08-08T07:57:00;99938.47;;;15.28;100.00
36380;BME280;22411;53.016;18.632;2023-08-08T07:59:25;99910.53;;;15.21;100.00
36380;BME280;22411;53.016;18.632;2023-08-08T08:01:52;99923.72;;;15.37;100.00
36380;BME280;22411;53.016;18.632;2023-08-08T08:04:18;99925.00;;;15.51;100.00
36380;BME280;22411;53.016;18.632;2023-08-08T08:06:44;99920.72;;;15.50;100.00
36380;BME280;22411;53.016;18.632;2023-08-08T08:09:09;99922.59;;;15.57;100.00
36380;BME280;22411;53.016;18.632;2023-08-08T08:11:35;99927.16;;;15.73;100.00
36380;BME280;22411;53.016;18.632;2023-08-08T08:14:01;99950.06;;;15.79;100.00
36380;BME280;22411;53.016;18.632;2023-08-08T08:16:26;99936.09;;;15.88;100.00
36380;BME280;22411;53.016;18.632;2023-08-08T08:18:52;99925.91;;;16.03;100.00
36380;BME280;22411;53.016;18.632;2023-08-08T08:21:18;99919.78;;;16.20;100.00
36380;BME280;22411;53.016;18.632;2023-08-08T08:23:44;99925.72;;;16.31;100.00
36380;BME280;22411;53.016;18.632;2023-08-08T08:26:11;99961.72;;;16.37;100.00
36380;BME280;22411;53.016;18.632;2023-08-08T08:28:37;99947.41;;;16.23;100.00
36380;BME280;22411;53.016;18.632;2023-08-08T08:31:06;99958.22;;;16.28;100.00
36380;BME280;22411;53.016;18.632;2023-08-08T08:33:32;99987.69;;;16.30;100.00
36380;BME280;22411;53.016;18.632;2023-08-08T08:35:58;99953.63;;;16.22;100.00
36380;BME280;22411;53.016;18.632;2023-08-08T08:38:23;99961.28;;;16.15;100.00
36380;BME280;22411;53.016;18.632;2023-08-08T08:40:50;99962.88;;;16.08;100.00
36380;BME280;22411;53.016;18.632;2023-08-08T08:43:19;99979.00;;;16.30;100.00
36380;BME280;22411;53.016;18.632;2023-08-08T08:45:50;100007.50;;;16.41;100.00
36380;BME280;22411;53.016;18.632;2023-08-08T08:48:16;99974.16;;;16.43;100.00
36380;BME280;22411;53.016;18.632;2023-08-08T08:50:45;99975.06;;;16.26;100.00
36380;BME280;22411;53.016;18.632;2023-08-08T08:53:13;99975.19;;;16.50;100.00
36380;BME280;22411;53.016;18.632;2023-08-08T08:55:39;99978.56;;;16.68;100.00
36380;BME280;22411;53.016;18.632;2023-08-08T08:58:05;99973.00;;;17.06;100.00
36380;BME280;22411;53.016;18.632;2023-08-08T09:00:31;99966.97;;;17.21;100.00
36380;BME280;22411;53.016;18.632;2023-08-08T09:02:58;99983.00;;;17.10;100.00
36380;BME280;22411;53.016;18.632;2023-08-08T09:05:25;99974.63;;;17.07;100.00
36380;BME280;22411;53.016;18.632;2023-08-08T09:07:51;99987.97;;;17.38;100.00
36380;BME280;22411;53.016;18.632;2023-08-08T09:10:18;99989.44;;;17.40;100.00
36380;BME280;22411;53.016;18.632;2023-08-08T09:12:44;99985.03;;;17.57;100.00
36380;BME280;22411;53.016;18.632;2023-08-08T09:15:11;99996.50;;;17.56;100.00
36380;BME280;22411;53.016;18.632;2023-08-08T09:17:43;100002.91;;;17.70;100.00
36380;BME280;22411;53.016;18.632;2023-08-08T09:20:12;99996.78;;;17.37;100.00
36380;BME280;22411;53.016;18.632;2023-08-08T09:22:38;100009.16;;;17.10;100.00
36380;BME280;22411;53.016;18.632;2023-08-08T09:25:05;99997.03;;;16.67;100.00
36380;BME280;22411;53.016;18.632;2023-08-08T09:27:31;100002.03;;;16.86;100.00
36380;BME280;22411;53.016;18.632;2023-08-08T09:29:57;100003.47;;;16.72;100.00
36380;BME280;22411;53.016;18.632;2023-08-08T09:32:23;99997.84;;;17.02;100.00
36380;BME280;22411;53.016;18.632;2023-08-08T09:34:53;100006.72;;;17.09;100.00
36380;BME280;22411;53.016;18.632;2023-08-08T09:37:19;100016.72;;;16.79;100.00
36380;BME280;22411;53.016;18.632;2023-08-08T09:39:45;100016.28;;;16.66;100.00
36380;BME280;22411;53.016;18.632;2023-08-08T09:42:11;100010.13;;;16.67;100.00
36380;BME280;22411;53.016;18.632;2023-08-08T09:44:37;100036.50;;;16.73;100.00
36380;BME280;22411;53.016;18.632;2023-08-08T09:47:02;100060.06;;;16.82;100.00
36380;BME280;22411;53.016;18.632;2023-08-08T09:49:28;100008.22;;;16.77;100.00
36380;BME280;22411;53.016;18.632;2023-08-08T09:51:58;100008.47;;;17.00;100.00
36380;BME280;22411;53.016;18.632;2023-08-08T09:54:24;100039.72;;;17.02;100.00
36380;BME280;22411;53.016;18.632;2023-08-08T09:56:50;100033.66;;;16.93;100.00
36380;BME280;22411;53.016;18.632;2023-08-08T09:59:17;100025.81;;;16.93;100.00
36380;BME280;22411;53.016;18.632;2023-08-08T10:01:44;100008.66;;;16.98;100.00
36380;BME280;22411;53.016;18.632;2023-08-08T10:04:11;100028.19;;;16.78;100.00
36380;BME280;22411;53.016;18.632;2023-08-08T10:06:37;100022.41;;;16.48;100.00
36380;BME280;22411;53.016;18.632;2023-08-08T10:09:03;100014.06;;;16.45;100.00
36380;BME280;22411;53.016;18.632;2023-08-08T10:11:30;100037.03;;;16.59;100.00
36380;BME280;22411;53.016;18.632;2023-08-08T10:13:58;100035.91;;;16.36;100.00
36380;BME280;22411;53.016;18.632;2023-08-08T10:16:26;100040.78;;;16.31;100.00
36380;BME280;22411;53.016;18.632;2023-08-08T10:18:56;100021.78;;;16.29;100.00
36380;BME280;22411;53.016;18.632;2023-08-08T10:21:23;100029.28;;;16.24;100.00
36380;BME280;22411;53.016;18.632;2023-08-08T10:23:49;100023.75;;;16.27;100.00
36380;BME280;22411;53.016;18.632;2023-08-08T10:26:25;100016.06;;;16.51;100.00
36380;BME280;22411;53.016;18.632;2023-08-08T10:28:58;100041.81;;;16.64;100.00
36380;BME280;22411;53.016;18.632;2023-08-08T10:31:24;100031.44;;;16.54;100.00
36380;BME280;22411;53.016;18.632;2023-08-08T10:34:01;100028.47;;;16.49;100.00
36380;BME280;22411;53.016;18.632;2023-08-08T10:36:51;100019.59;;;16.42;100.00
36380;BME280;22411;53.016;18.632;2023-08-08T10:39:19;100027.75;;;16.39;100.00
36380;BME280;22411;53.016;18.632;2023-08-08T10:41:50;100020.84;;;16.56;100.00
36380;BME280;22411;53.016;18.632;2023-08-08T10:44:26;100030.28;;;16.75;100.00
36380;BME280;22411;53.016;18.632;2023-08-08T10:46:52;100032.66;;;16.94;100.00
36380;BME280;22411;53.016;18.632;2023-08-08T10:49:22;100020.50;;;17.27;100.00
36380;BME280;22411;53.016;18.632;2023-08-08T10:51:49;100016.00;;;17.70;100.00
36380;BME280;22411;53.016;18.632;2023-08-08T10:54:19;100015.19;;;18.26;100.00
36380;BME280;22411;53.016;18.632;2023-08-08T10:56:55;100009.84;;;18.84;100.00
36380;BME280;22411;53.016;18.632;2023-08-08T10:59:23;99999.56;;;19.05;100.00
36380;BME280;22411;53.016;18.632;2023-08-08T11:01:49;100019.97;;;18.87;100.00
36380;BME280;22411;53.016;18.632;2023-08-08T11:04:19;100026.75;;;18.65;100.00
36380;BME280;22411;53.016;18.632;2023-08-08T11:06:46;100013.41;;;18.35;100.00
36380;BME280;22411;53.016;18.632;2023-08-08T11:09:13;100013.69;;;18.48;100.00
36380;BME280;22411;53.016;18.632;2023-08-08T11:11:40;100022.19;;;18.59;100.00
36380;BME280;22411;53.016;18.632;2023-08-08T11:14:14;100012.91;;;18.32;100.00
36380;BME280;22411;53.016;18.632;2023-08-08T11:16:40;100020.78;;;18.15;100.00
36380;BME280;22411;53.016;18.632;2023-08-08T11:19:07;100039.94;;;17.75;100.00
36380;BME280;22411;53.016;18.632;2023-08-08T11:21:34;100023.91;;;17.94;100.00
36380;BME280;22411;53.016;18.632;2023-08-08T11:24:01;100047.63;;;18.34;100.00
36380;BME280;22411;53.016;18.632;2023-08-08T11:26:27;100034.38;;;18.35;100.00
36380;BME280;22411;53.016;18.632;2023-08-08T11:28:53;100041.56;;;18.33;100.00
36380;BME280;22411;53.016;18.632;2023-08-08T11:31:22;100037.00;;;18.11;100.00
36380;BME280;22411;53.016;18.632;2023-08-08T11:33:48;100050.31;;;17.93;100.00
36380;BME280;22411;53.016;18.632;2023-08-08T11:36:14;100059.81;;;18.10;100.00
36380;BME280;22411;53.016;18.632;2023-08-08T11:38:42;100054.88;;;18.07;100.00
36380;BME280;22411;53.016;18.632;2023-08-08T11:41:13;100035.38;;;17.85;100.00
36380;BME280;22411;53.016;18.632;2023-08-08T11:43:40;100038.59;;;17.71;100.00
36380;BME280;22411;53.016;18.632;2023-08-08T11:46:11;100056.28;;;17.69;100.00
36380;BME280;22411;53.016;18.632;2023-08-08T11:48:38;100044.38;;;17.91;100.00
36380;BME280;22411;53.016;18.632;2023-08-08T11:51:04;100046.84;;;18.25;100.00
36380;BME280;22411;53.016;18.632;2023-08-08T11:53:30;100061.41;;;18.44;100.00
36380;BME280;22411;53.016;18.632;2023-08-08T11:55:56;100042.91;;;18.05;100.00
36380;BME280;22411;53.016;18.632;2023-08-08T11:58:24;100058.16;;;17.85;100.00
36380;BME280;22411;53.016;18.632;2023-08-08T12:00:51;100054.53;;;17.77;100.00
36380;BME280;22411;53.016;18.632;2023-08-08T12:03:20;100072.84;;;17.69;100.00
36380;BME280;22411;53.016;18.632;2023-08-08T12:05:49;100057.50;;;17.83;100.00
36380;BME280;22411;53.016;18.632;2023-08-08T12:08:18;100055.34;;;18.02;100.00
36380;BME280;22411;53.016;18.632;2023-08-08T12:10:48;100058.81;;;18.19;100.00
36380;BME280;22411;53.016;18.632;2023-08-08T12:13:25;100055.34;;;18.51;100.00
36380;BME280;22411;53.016;18.632;2023-08-08T12:15:54;100066.66;;;18.68;100.00
36380;BME280;22411;53.016;18.632;2023-08-08T12:18:19;100053.16;;;18.71;100.00
36380;BME280;22411;53.016;18.632;2023-08-08T12:20:45;100064.16;;;18.67;100.00
36380;BME280;22411;53.016;18.632;2023-08-08T12:23:12;100050.13;;;18.27;100.00
36380;BME280;22411;53.016;18.632;2023-08-08T12:25:38;100064.50;;;18.55;100.00
36380;BME280;22411;53.016;18.632;2023-08-08T12:28:05;100047.41;;;18.84;100.00
36380;BME280;22411;53.016;18.632;2023-08-08T12:30:31;100056.97;;;19.16;100.00
36380;BME280;22411;53.016;18.632;2023-08-08T12:32:57;100069.22;;;19.24;100.00
36380;BME280;22411;53.016;18.632;2023-08-08T12:35:22;100038.81;;;19.29;100.00
36380;BME280;22411;53.016;18.632;2023-08-08T12:37:48;100039.66;;;19.30;100.00